Massachusetts Logo

Lynnfield, MA Single Family Real Estate Listings

62 Total Real Estate Listings * Click on table heading to sort
Date Posted Property Type Style Address Price Living Area Lot Size Price/Sq Ft.
2019-10-17 Single Family Ranch 6 Alexandra Rd Lynnfield, MA 01940 $649,900 2,406 sq. ft. 30,928 sq. ft. $270
2019-10-17 Single Family Colonial 478 Salem Street Lynnfield, MA 01940 $399,888 1,592 sq. ft. 25,700 sq. ft. $251
2019-10-14 Single Family Colonial 6 Glen Drive Lynnfield, MA 01940 $999,000 2,921 sq. ft. 60,548 sq. ft. $342
2019-10-03 Single Family Colonial 82 Main Street Lynnfield, MA 01940 $399,900 1,906 sq. ft. 21,780 sq. ft. $210
2019-10-02 Single Family Split Entry 18 Village Row Lynnfield, MA 01940 $749,900 2,296 sq. ft. 98,010 sq. ft. $327
2019-10-02 Single Family Multi-Level 11 Smith Farm Trail Lynnfield, MA 01940 $879,000 3,784 sq. ft. 26,572 sq. ft. $232
2019-10-01 Single Family Multi-Level 3 Putney Lane Lynnfield, MA 01940 $679,000 2,181 sq. ft. 15,682 sq. ft. $311
2019-10-01 Single Family Split Entry 3 Wymon Way Lynnfield, MA 01940 $1,030,000 3,880 sq. ft. 40,946 sq. ft. $265
2019-10-01 Single Family Ranch 7 Saunders Rd Lynnfield, MA 01940 $515,000 1,348 sq. ft. 14,810 sq. ft. $382
2019-09-27 Single Family Cape; Gambrel /Dutch 365 Essex St Lynnfield, MA 01940 $2,750,000 7,000 sq. ft. 40,075 sq. ft. $393
2019-09-25 Single Family Cape 41 Canterbury Road Lynnfield, MA 01940 $579,000 1,650 sq. ft. 6,098 sq. ft. $351
2019-09-25 Single Family Colonial 154 Chestnut Street Lynnfield, MA 01940 $1,379,000 3,816 sq. ft. 30,492 sq. ft. $361
2019-09-24 Single Family Cape 972 Main St Lynnfield, MA 01940 $479,000 2,215 sq. ft. 16,553 sq. ft. $216
2019-09-20 Single Family Contemporary; Split Entry 11 Timberhill Lane Lynnfield, MA 01940 $829,000 2,744 sq. ft. 35,284 sq. ft. $302
2019-09-19 Single Family Colonial 28 Crescent Ave Lynnfield, MA 01940 $399,999 888 sq. ft. 1,742 sq. ft. $450
2019-09-19 Single Family Cape 621 Lowell Street Lynnfield, MA 01940 $729,900 2,794 sq. ft. 60,113 sq. ft. $261
2019-09-19 Single Family Ranch 24 Ashwood Rd Lynnfield, MA 01940 $459,900 1,312 sq. ft. 7,405 sq. ft. $351
2019-09-12 Single Family Ranch 18 Bishops Lane Lynnfield, MA 01940 $689,900 3,389 sq. ft. 15,682 sq. ft. $204
2019-09-12 Single Family Colonial; Contemporary 4 Olde Towne Road Lynnfield, MA 01940 $1,350,000 7,813 sq. ft. 50,094 sq. ft. $173
2019-09-11 Single Family Colonial ONE Stagecoach Lane Lynnfield, MA 01940 $1,200,000 4,634 sq. ft. 30,056 sq. ft. $259
2019-09-11 Single Family Colonial 4 Zepaj Lane Lynnfield, MA 01940 $849,900 3,434 sq. ft. 16,553 sq. ft. $247
2019-09-11 Single Family Ranch 8 Laurel Road Lynnfield, MA 01940 $569,900 1,456 sq. ft. 13,939 sq. ft. $391
2019-09-11 Single Family Colonial; Garrison 2 Daventry Court Lynnfield, MA 01940 $1,049,000 5,115 sq. ft. 42,253 sq. ft. $205
2019-09-09 Single Family Ranch 514 Lowell Lynnfield, MA 01940 $779,900 2,447 sq. ft. 64,904 sq. ft. $319
2019-09-05 Single Family Split Entry 20 Edgemere Road Lynnfield, MA 01940 $839,900 4,599 sq. ft. 46,174 sq. ft. $183
2019-09-04 Single Family Contemporary 8 Doncaster Road Lynnfield, MA 01940 $674,900 2,624 sq. ft. 13,939 sq. ft. $257
2019-09-04 Single Family Cape 72 Canterbury Road Lynnfield, MA 01940 $539,900 1,396 sq. ft. 4,792 sq. ft. $387
2019-09-03 Single Family Ranch 14 Pine Street Lynnfield, MA 01940 $495,000 1,404 sq. ft. 30,928 sq. ft. $353
2019-09-02 Single Family Victorian 344 Main St Lynnfield, MA 01940 $708,000 2,580 sq. ft. 30,056 sq. ft. $274
2019-08-29 Single Family Cape 14 Ward Ter Lynnfield, MA 01940 $649,900 2,340 sq. ft. 10,019 sq. ft. $278
2019-08-21 Single Family Ranch 36 Walnut St Lynnfield, MA 01940 $899,900 3,164 sq. ft. 36,590 sq. ft. $284
2019-08-21 Single Family Contemporary 3 Fall Way Lynnfield, MA 01940 $749,900 3,977 sq. ft. 21,344 sq. ft. $189
2019-08-21 Single Family Ranch 80 Bourque Road Lynnfield, MA 01940 $499,000 1,172 sq. ft. 37,897 sq. ft. $426
2019-08-21 Single Family Colonial 468 Summer St Lynnfield, MA 01940 $599,999 2,165 sq. ft. 12,197 sq. ft. $277
2019-08-17 Single Family Ranch 707 Walnut Street Lynnfield, MA 01940 $459,000 1,427 sq. ft. 18,731 sq. ft. $322
2019-08-15 Single Family Cape 29 Locksley Road Lynnfield, MA 01940 $599,900 2,304 sq. ft. 10,890 sq. ft. $260
2019-08-15 Single Family Split Entry 2 Sparhawk Drive Lynnfield, MA 01940 $710,000 2,076 sq. ft. 31,799 sq. ft. $342
2019-08-14 Single Family Gambrel /Dutch 2 Thwing Road Lynnfield, MA 01940 $664,900 2,328 sq. ft. 10,019 sq. ft. $286
2019-08-14 Single Family Split Entry 45 Doncaster Cir Lynnfield, MA 01940 $729,000 2,037 sq. ft. 27,443 sq. ft. $358
2019-08-07 Single Family Colonial 306 Summer Street Lynnfield, MA 01940 $2,295,000 6,228 sq. ft. 95,832 sq. ft. $368
2019-08-03 Single Family Ranch 6 Alexandra Road Lynnfield, MA 01940 $659,900 2,406 sq. ft. 30,928 sq. ft. $274
2019-07-31 Single Family Ranch 2 Longbow Road Lynnfield, MA 01940 $679,900 2,140 sq. ft. 10,890 sq. ft. $318
2019-07-30 Single Family Raised Ranch 24 Fernway Lynnfield, MA 01940 $669,900 2,336 sq. ft. 15,682 sq. ft. $287
2019-07-24 Single Family Gambrel /Dutch; Other (See Remarks) 54 Highland Avenue Lynnfield, MA 01940 $559,900 2,604 sq. ft. 10,019 sq. ft. $215
2019-07-22 Single Family Colonial 861 Salem Street Lynnfield, MA 01941 $649,900 2,773 sq. ft. 16,553 sq. ft. $234
2019-07-19 Single Family Ranch 21 Thomas Rd Lynnfield, MA 01940 $559,000 1,823 sq. ft. 16,988 sq. ft. $307
2019-07-12 Single Family Contemporary 6 Shady Nook Lane Lynnfield, MA 01940 $999,000 4,923 sq. ft. 32,670 sq. ft. $203
2019-07-11 Single Family Ranch 11 Pine St Lynnfield, MA 01940 $639,900 2,111 sq. ft. 41,818 sq. ft. $303
2019-07-10 Single Family Contemporary 33 Daventry Ct Lynnfield, MA 01940 $699,900 2,780 sq. ft. 15,246 sq. ft. $252
2019-07-02 Single Family Colonial 2 Bridle Path Lynnfield, MA 01940 $1,890,000 8,038 sq. ft. 60,984 sq. ft. $235
2019-06-28 Single Family Multi-Level 449 Essex St Lynnfield, MA 01940 $699,900 2,405 sq. ft. 40,075 sq. ft. $291
2019-06-27 Single Family Multi-Level 11 Smith Farm Trl Lynnfield, MA 01940 $919,900 3,587 sq. ft. 26,572 sq. ft. $256
2019-06-26 Single Family Colonial; Contemporary 4 Olde Towne Road Lynnfield, MA 01940 $1,450,000 7,813 sq. ft. 50,094 sq. ft. $186
2019-06-20 Single Family Cape 59 Walnut Street Lynnfield, MA 01940 $999,999 3,474 sq. ft. 28,750 sq. ft. $288
2019-06-18 Single Family Cape 781 Lowell Street Lynnfield, MA 01940 $539,000 1,080 sq. ft. 39,640 sq. ft. $499
2019-05-23 Single Family Ranch 38 Wildewood Dr Lynnfield, MA 01940 $624,000 2,526 sq. ft. 27,007 sq. ft. $247
2019-05-17 Single Family Cape 9 Windsor Road Lynnfield, MA 01940 $1,129,000 4,080 sq. ft. 31,799 sq. ft. $277
2019-05-14 Single Family Cape 19 Smith Farm Trl Lynnfield, MA 01940 $1,075,000 4,476 sq. ft. 45,302 sq. ft. $240
2019-05-13 Single Family Colonial 8 Mohawk Lane Lynnfield, MA 01940 $1,100,000 3,765 sq. ft. 60,113 sq. ft. $292
2019-04-30 Single Family Contemporary 16 Bluejay Road Lynnfield, MA 01940 $939,000 5,000 sq. ft. 30,056 sq. ft. $188
2019-04-29 Single Family Colonial 2 Meservey Lynnfield, MA 01940 $699,000 3,408 sq. ft. 77,101 sq. ft. $205
2019-02-28 Single Family Craftsman 1 Wing Road Lynnfield, MA 01940 $1,249,000 3,500 sq. ft. 21,344 sq. ft. $357